createdAt,value
2022-08-10T00:01:55.744Z,99088.22
2022-08-10T00:04:26.317Z,99087.06
2022-08-10T00:06:56.432Z,99093.78
2022-08-10T00:09:25.809Z,99092.44
2022-08-10T00:11:54.664Z,99087.78
2022-08-10T00:14:25.522Z,99087.97
2022-08-10T00:16:54.369Z,99085.78
2022-08-10T00:19:23.380Z,99087.28
2022-08-10T00:21:53.754Z,99085.13
2022-08-10T00:24:22.783Z,99080.13
2022-08-10T00:28:01.749Z,99082.63
2022-08-10T00:29:42.442Z,99077.78
2022-08-10T00:32:14.655Z,99081.81
2022-08-10T00:34:43.730Z,99079.63
2022-08-10T00:37:17.248Z,99072.09
2022-08-10T00:39:46.721Z,99072.59
2022-08-10T00:42:17.213Z,99075.78
2022-08-10T00:44:49.939Z,99070.94
2022-08-10T00:47:36.710Z,99080.31
2022-08-10T00:50:08.729Z,99076.16
2022-08-10T00:52:41.208Z,99078.47
2022-08-10T00:55:10.824Z,99071.78
2022-08-10T00:57:40.754Z,99070.41
2022-08-10T01:00:11.603Z,99076.09
2022-08-10T01:02:40.709Z,99086.31
2022-08-10T01:05:14.356Z,99085.47
2022-08-10T01:08:27.099Z,99077.75
2022-08-10T01:11:07.082Z,99075.44
2022-08-10T01:14:06.498Z,99083.81
2022-08-10T01:16:45.852Z,99088.97
2022-08-10T01:19:39.363Z,99077.91
2022-08-10T01:22:58.184Z,99083.41
2022-08-10T01:26:12.538Z,99075.59
2022-08-10T01:28:57.698Z,99084.28
2022-08-10T01:31:38.829Z,99069.69
2022-08-10T01:34:15.752Z,99076.53
2022-08-10T01:36:53.524Z,99079.88
2022-08-10T01:39:27.057Z,99077.50
2022-08-10T01:42:02.499Z,99076.16
2022-08-10T01:44:38.420Z,99073.97
2022-08-10T01:47:32.722Z,99084.84
2022-08-10T01:50:08.044Z,99083.66
2022-08-10T01:52:43.003Z,99080.63
2022-08-10T01:55:15.138Z,99074.25
2022-08-10T01:57:46.859Z,99074.56
2022-08-10T02:00:16.664Z,99074.88
2022-08-10T02:02:51.173Z,99073.56
2022-08-10T02:05:23.133Z,99069.53
2022-08-10T02:07:53.067Z,99079.53
2022-08-10T02:10:25.282Z,99074.50
2022-08-10T02:12:58.233Z,99071.19
2022-08-10T02:15:33.504Z,99076.00
2022-08-10T02:18:11.238Z,99085.31
2022-08-10T02:20:46.483Z,99074.09
2022-08-10T02:23:20.564Z,99078.78
2022-08-10T02:25:52.888Z,99081.75
2022-08-10T02:28:30.732Z,99080.53
2022-08-10T02:31:06.540Z,99078.34
2022-08-10T02:33:56.802Z,99074.47
2022-08-10T02:36:32.254Z,99079.00
2022-08-10T02:39:06.201Z,99081.66
2022-08-10T02:45:12.482Z,99082.81
2022-08-10T02:45:21.693Z,99085.94
2022-08-10T02:47:51.072Z,99082.94
2022-08-10T02:50:29.334Z,99082.53
2022-08-10T02:53:06.455Z,99078.53
2022-08-10T02:55:44.006Z,99076.16
2022-08-10T02:58:24.318Z,99081.81
2022-08-10T03:00:57.560Z,99078.59
2022-08-10T03:03:34.300Z,99081.78
2022-08-10T03:06:12.013Z,99077.56
2022-08-10T03:08:45.219Z,99094.75
2022-08-10T03:12:36.072Z,99082.69
2022-08-10T03:14:19.106Z,99076.66
2022-08-10T03:16:49.795Z,99071.31
2022-08-10T03:20:33.463Z,99083.00
2022-08-10T03:22:13.779Z,99078.78
2022-08-10T03:24:45.246Z,99089.63
2022-08-10T03:27:16.351Z,99079.94
2022-08-10T03:30:29.881Z,99087.31
2022-08-10T03:32:36.324Z,99082.25
2022-08-10T03:35:08.959Z,99090.59
2022-08-10T03:37:40.308Z,99095.22
2022-08-10T03:40:10.859Z,99095.69
2022-08-10T03:42:41.798Z,99098.81
2022-08-10T03:45:12.059Z,99095.09
2022-08-10T03:47:44.288Z,99094.69
2022-08-10T03:50:45.532Z,99101.19
2022-08-10T03:53:05.696Z,99094.31
2022-08-10T03:56:28.529Z,99100.81
2022-08-10T03:58:24.721Z,99099.81
2022-08-10T04:00:54.533Z,99098.81
2022-08-10T04:03:23.840Z,99105.00
2022-08-10T04:05:59.399Z,99099.13
2022-08-10T04:08:30.109Z,99101.28
2022-08-10T04:10:59.111Z,99102.50
2022-08-10T04:13:27.951Z,99104.50
2022-08-10T04:15:56.897Z,99108.47
2022-08-10T04:18:25.652Z,99109.44
2022-08-10T04:21:02.290Z,99109.44
2022-08-10T04:23:37.648Z,99106.78
2022-08-10T04:26:07.250Z,99113.41
2022-08-10T04:28:36.728Z,99111.75
2022-08-10T04:31:09.048Z,99105.41
2022-08-10T04:33:46.561Z,99107.78
2022-08-10T04:36:18.053Z,99109.44
2022-08-10T04:38:52.405Z,99108.47
2022-08-10T04:41:22.499Z,99106.78
2022-08-10T04:43:51.578Z,99108.47
2022-08-10T04:46:55.764Z,99105.47
2022-08-10T04:49:54.920Z,99107.84
2022-08-10T04:52:04.791Z,99110.38
2022-08-10T04:54:34.992Z,99109.78
2022-08-10T04:57:04.433Z,99117.34
2022-08-10T04:59:33.451Z,99109.75
2022-08-10T05:02:28.101Z,99113.63
2022-08-10T05:04:51.390Z,99113.00
2022-08-10T05:07:20.427Z,99117.75
2022-08-10T05:10:02.911Z,99119.09
2022-08-10T05:12:37.414Z,99115.97
2022-08-10T05:15:12.893Z,99113.66
2022-08-10T05:18:06.825Z,99127.09
2022-08-10T05:20:32.716Z,99125.66
2022-08-10T05:23:01.531Z,99131.22
2022-08-10T05:25:32.983Z,99135.66
2022-08-10T05:28:07.387Z,99126.00
2022-08-10T05:30:36.597Z,99125.38
2022-08-10T05:33:08.783Z,99119.41
2022-08-10T05:35:57.115Z,99121.63
2022-08-10T05:38:28.362Z,99128.81
2022-08-10T05:40:59.154Z,99122.53
2022-08-10T05:43:28.848Z,99126.97
2022-08-10T05:46:19.566Z,99123.34
2022-08-10T05:48:59.640Z,99117.69
2022-08-10T05:51:30.930Z,99120.25
2022-08-10T05:54:06.730Z,99121.66
2022-08-10T05:56:56.421Z,99128.22
2022-08-10T06:00:29.306Z,99119.88
2022-08-10T06:02:41.704Z,99128.63
2022-08-10T06:05:14.605Z,99121.63
2022-08-10T06:07:49.091Z,99121.97
2022-08-10T06:10:19.699Z,99123.19
2022-08-10T06:13:30.091Z,99117.84
2022-08-10T06:16:07.890Z,99109.78
2022-08-10T06:18:38.252Z,99107.94
2022-08-10T06:21:09.534Z,99114.25
2022-08-10T06:23:40.111Z,99115.22
2022-08-10T06:26:14.134Z,99116.91
2022-08-10T06:28:56.940Z,99119.53
2022-08-10T06:31:48.089Z,99119.28
2022-08-10T06:34:25.447Z,99114.59
2022-08-10T06:36:58.550Z,99117.47
2022-08-10T06:39:36.465Z,99116.03
2022-08-10T06:42:18.346Z,99120.56
2022-08-10T06:45:01.590Z,99118.69
2022-08-10T06:47:46.081Z,99121.13
2022-08-10T06:50:35.124Z,99121.25
2022-08-10T06:53:17.525Z,99119.13
2022-08-10T06:55:56.843Z,99115.31
2022-08-10T06:58:33.303Z,99115.19
2022-08-10T07:01:08.087Z,99109.63
2022-08-10T07:03:45.354Z,99101.38
2022-08-10T07:06:20.336Z,99103.84
2022-08-10T07:08:52.209Z,99102.41
2022-08-10T07:11:23.992Z,99098.91
2022-08-10T07:14:15.901Z,99095.31
2022-08-10T07:16:48.732Z,99090.06
2022-08-10T07:19:19.921Z,99082.13
2022-08-10T07:21:50.548Z,99097.34
2022-08-10T07:24:29.086Z,99087.19
2022-08-10T07:26:59.592Z,99085.13
2022-08-10T07:29:54.060Z,99088.66
2022-08-10T07:32:24.299Z,99083.16
2022-08-10T07:34:57.163Z,99083.88
2022-08-10T07:37:30.191Z,99083.72
2022-08-10T07:40:04.186Z,99082.75
2022-08-10T07:42:35.126Z,99082.38
2022-08-10T07:45:06.149Z,99085.16
2022-08-10T07:47:52.888Z,99082.41
2022-08-10T07:50:26.650Z,99080.56
2022-08-10T07:53:02.422Z,99082.31
2022-08-10T07:56:05.316Z,99077.88
2022-08-10T07:58:31.104Z,99078.91
2022-08-10T08:01:02.225Z,99079.22
2022-08-10T08:03:34.876Z,99074.38
2022-08-10T08:06:12.095Z,99071.59
2022-08-10T08:08:45.842Z,99071.38
2022-08-10T08:11:26.202Z,99082.88
2022-08-10T08:13:57.341Z,99078.25
2022-08-10T08:16:27.258Z,99079.84
2022-08-10T08:19:27.062Z,99075.25
2022-08-10T08:24:10.787Z,99081.38
2022-08-10T08:24:43.234Z,99081.28
2022-08-10T08:27:16.674Z,99076.97
2022-08-10T08:29:49.168Z,99071.53
2022-08-10T08:32:22.680Z,99069.69
2022-08-10T08:34:58.244Z,99070.69
2022-08-10T08:38:28.773Z,99067.53
2022-08-10T08:40:27.438Z,99076.97
2022-08-10T08:43:31.498Z,99072.88
2022-08-10T08:46:41.304Z,99068.59
2022-08-10T08:50:08.234Z,99059.88
2022-08-10T08:52:42.780Z,99070.97
2022-08-10T08:56:04.062Z,99071.06
2022-08-10T08:59:07.054Z,99064.03
2022-08-10T09:01:59.580Z,99061.50
2022-08-10T09:04:57.276Z,99056.34
2022-08-10T09:08:02.629Z,99061.13
2022-08-10T09:10:44.344Z,99052.84
2022-08-10T09:13:26.993Z,99055.66
2022-08-10T09:16:25.636Z,99054.13
2022-08-10T09:19:07.994Z,99047.69
2022-08-10T09:21:58.597Z,99053.63
2022-08-10T09:24:50.989Z,99049.50
2022-08-10T09:27:23.848Z,99053.41
2022-08-10T09:29:57.815Z,99043.59
2022-08-10T09:36:13.563Z,99040.91
2022-08-10T09:36:28.949Z,99037.59
2022-08-10T09:38:53.051Z,99028.09
2022-08-10T09:41:36.911Z,99021.34
2022-08-10T09:44:14.814Z,99012.44
2022-08-10T09:47:00.261Z,99019.06
2022-08-10T09:49:54.434Z,99022.56
2022-08-10T09:52:32.986Z,99022.94
2022-08-10T09:55:13.949Z,99028.47
2022-08-10T09:58:01.991Z,99026.66
2022-08-10T10:00:36.575Z,99021.88
2022-08-10T10:03:20.532Z,99011.38
2022-08-10T10:05:57.639Z,99015.06
2022-08-10T10:08:32.165Z,99009.66
2022-08-10T10:11:16.229Z,99010.75
2022-08-10T10:14:02.489Z,99009.97
2022-08-10T10:16:52.988Z,99007.16
2022-08-10T10:19:53.754Z,99001.66
2022-08-10T10:22:44.441Z,98995.53
2022-08-10T10:25:50.139Z,98989.31
2022-08-10T10:29:07.011Z,98980.75
2022-08-10T10:31:32.378Z,98987.97
2022-08-10T10:34:15.052Z,98977.59
2022-08-10T10:36:46.855Z,98978.59
2022-08-10T10:39:23.948Z,98969.75
2022-08-10T10:42:04.620Z,98981.66
2022-08-10T10:44:53.727Z,98983.38
2022-08-10T10:47:54.836Z,98982.09
2022-08-10T10:50:32.475Z,98974.16
2022-08-10T10:53:15.108Z,98955.19
2022-08-10T10:56:14.182Z,98962.06
2022-08-10T10:58:56.925Z,98964.41
2022-08-10T11:01:39.499Z,98970.81
2022-08-10T11:04:24.230Z,98964.94
2022-08-10T11:07:11.263Z,98966.81
2022-08-10T11:10:05.465Z,98946.25
2022-08-10T11:12:50.963Z,98949.00
2022-08-10T11:15:27.947Z,98964.19
2022-08-10T11:18:04.962Z,98958.06
2022-08-10T11:20:47.678Z,98961.72
2022-08-10T11:23:27.293Z,98955.59
2022-08-10T11:26:09.149Z,98962.25
2022-08-10T11:28:47.489Z,98953.91
2022-08-10T11:31:29.801Z,98940.06
2022-08-10T11:34:47.857Z,98939.50
2022-08-10T11:37:11.606Z,98938.44
2022-08-10T11:39:52.418Z,98931.50
2022-08-10T11:42:36.608Z,98951.34
2022-08-10T11:45:13.145Z,98951.88
2022-08-10T11:47:51.889Z,98941.22
2022-08-10T11:50:29.463Z,98940.03
2022-08-10T11:53:14.570Z,98942.00
2022-08-10T11:55:50.223Z,98929.44
2022-08-10T11:58:41.141Z,98929.47
2022-08-10T12:01:16.263Z,98941.53
2022-08-10T12:03:48.605Z,98931.59
2022-08-10T12:06:53.826Z,98923.91
2022-08-10T12:10:08.981Z,98914.31
2022-08-10T12:12:04.392Z,98914.88
2022-08-10T12:14:42.436Z,98912.41
2022-08-10T12:17:18.141Z,98917.22
2022-08-10T12:20:02.075Z,98907.78
2022-08-10T12:22:42.439Z,98905.31
2022-08-10T12:25:56.523Z,98913.00
2022-08-10T12:28:15.744Z,98911.72
2022-08-10T12:31:01.397Z,98906.09
2022-08-10T12:34:01.464Z,98907.81
2022-08-10T12:36:37.899Z,98895.41
2022-08-10T12:39:16.108Z,98901.00
2022-08-10T12:42:00.968Z,98898.88
2022-08-10T12:44:42.250Z,98899.28
2022-08-10T12:47:27.762Z,98908.47
2022-08-10T12:50:31.095Z,98901.00
2022-08-10T12:53:18.619Z,98897.34
2022-08-10T12:55:51.555Z,98894.16
2022-08-10T12:58:57.830Z,98891.59
2022-08-10T13:01:16.982Z,98884.97
2022-08-10T13:04:20.693Z,98879.81
2022-08-10T13:06:43.459Z,98884.69
2022-08-10T13:09:13.992Z,98875.72
2022-08-10T13:12:35.043Z,98871.88
2022-08-10T13:14:50.786Z,98861.88
2022-08-10T13:17:38.667Z,98851.59
2022-08-10T13:20:19.317Z,98848.75
2022-08-10T13:22:52.679Z,98859.41
2022-08-10T13:25:29.829Z,98847.69
2022-08-10T13:28:35.454Z,98856.53
2022-08-10T13:30:58.281Z,98847.16
2022-08-10T13:34:39.633Z,98849.94
2022-08-10T13:36:28.965Z,98838.91
2022-08-10T13:38:59.463Z,98840.06
2022-08-10T13:41:31.412Z,98844.66
2022-08-10T13:44:02.679Z,98839.22
2022-08-10T13:46:32.793Z,98835.50
2022-08-10T13:49:07.801Z,98832.13
2022-08-10T13:51:54.481Z,98830.41
2022-08-10T13:54:37.258Z,98821.78
2022-08-10T13:57:07.807Z,98820.78
2022-08-10T14:00:34.596Z,98819.19
2022-08-10T14:02:35.174Z,98811.09
2022-08-10T14:05:05.980Z,98802.03
2022-08-10T14:08:00.127Z,98809.78
2022-08-10T14:11:08.858Z,98809.13
2022-08-10T14:13:28.733Z,98805.50
2022-08-10T14:15:59.969Z,98802.03
2022-08-10T14:18:36.438Z,98804.38
2022-08-10T14:21:06.672Z,98795.53
2022-08-10T14:23:42.332Z,98798.50
2022-08-10T14:26:27.020Z,98797.53
2022-08-10T14:29:04.275Z,98792.41
2022-08-10T14:31:38.239Z,98786.88
2022-08-10T14:34:10.956Z,98783.75
2022-08-10T14:36:47.241Z,98789.56
2022-08-10T14:39:27.241Z,98792.63
2022-08-10T14:42:12.182Z,98779.47
2022-08-10T14:44:58.157Z,98777.94
2022-08-10T14:47:53.453Z,98779.94
2022-08-10T14:50:31.401Z,98766.81
2022-08-10T14:53:11.026Z,98776.56
2022-08-10T14:55:57.592Z,98773.75
2022-08-10T14:58:32.839Z,98779.19
2022-08-10T15:01:07.003Z,98782.47
2022-08-10T15:04:01.734Z,98773.00
2022-08-10T15:06:41.874Z,98766.22
2022-08-10T15:09:19.177Z,98764.94
2022-08-10T15:12:15.203Z,98760.47
2022-08-10T15:14:46.280Z,98763.75
2022-08-10T15:17:26.367Z,98758.81
2022-08-10T15:20:02.123Z,98754.97
2022-08-10T15:22:49.865Z,98761.66
2022-08-10T15:25:25.174Z,98756.78
2022-08-10T15:28:05.791Z,98757.63
2022-08-10T15:30:42.750Z,98763.38
2022-08-10T15:34:03.043Z,98763.91
2022-08-10T15:36:44.799Z,98759.53
2022-08-10T15:40:21.893Z,98754.22
2022-08-10T15:42:21.681Z,98745.53
2022-08-10T15:44:55.087Z,98740.16
2022-08-10T15:47:45.584Z,98742.38
2022-08-10T15:50:23.138Z,98747.78
2022-08-10T15:53:03.216Z,98747.94
2022-08-10T15:55:45.205Z,98748.97
2022-08-10T15:58:39.138Z,98743.88
2022-08-10T16:02:14.908Z,98740.31
2022-08-10T16:04:12.697Z,98742.56
2022-08-10T16:06:47.825Z,98739.84
2022-08-10T16:10:26.537Z,98745.66
2022-08-10T16:12:29.187Z,98736.44
2022-08-10T16:15:07.921Z,98738.75
2022-08-10T16:17:55.678Z,98735.72
2022-08-10T16:20:53.052Z,98728.91
2022-08-10T16:23:29.841Z,98732.63
2022-08-10T16:26:14.613Z,98726.91
2022-08-10T16:28:52.307Z,98737.53
2022-08-10T16:31:25.510Z,98721.38
2022-08-10T16:33:59.488Z,98725.25
2022-08-10T16:36:39.248Z,98726.25
2022-08-10T16:39:16.347Z,98724.97
2022-08-10T16:42:05.955Z,98734.56
2022-08-10T16:44:42.418Z,98723.31
2022-08-10T16:47:13.911Z,98725.78
2022-08-10T16:49:44.773Z,98729.06
2022-08-10T16:52:16.817Z,98734.94
2022-08-10T16:54:50.547Z,98735.19
2022-08-10T16:57:22.238Z,98735.59
2022-08-10T16:59:57.198Z,98733.63
2022-08-10T17:02:28.544Z,98732.38
2022-08-10T17:04:59.617Z,98738.84
2022-08-10T17:07:30.870Z,98735.44
2022-08-10T17:10:07.701Z,98734.97
2022-08-10T17:12:41.145Z,98735.03
2022-08-10T17:15:12.689Z,98742.69
2022-08-10T17:17:46.983Z,98744.66
2022-08-10T17:20:30.563Z,98735.13
2022-08-10T17:23:10.745Z,98744.78
2022-08-10T17:25:48.746Z,98753.78
2022-08-10T17:28:34.748Z,98746.28
2022-08-10T17:31:24.224Z,98751.47
2022-08-10T17:34:14.585Z,98746.06
2022-08-10T17:36:47.782Z,98737.63
2022-08-10T17:39:22.770Z,98740.75
2022-08-10T17:41:55.875Z,98747.34
2022-08-10T17:44:26.849Z,98748.47
2022-08-10T17:46:57.942Z,98745.69
2022-08-10T17:49:28.512Z,98745.13
2022-08-10T17:52:02.638Z,98751.63
2022-08-10T17:54:34.516Z,98747.38
2022-08-10T17:57:09.261Z,98753.84
2022-08-10T17:59:40.537Z,98749.69
2022-08-10T18:02:15.772Z,98753.44
2022-08-10T18:04:51.809Z,98756.63
2022-08-10T18:07:29.148Z,98752.94
2022-08-10T18:10:01.444Z,98762.88
2022-08-10T18:12:40.683Z,98766.00
2022-08-10T18:15:15.668Z,98768.28
2022-08-10T18:17:52.488Z,98764.75
2022-08-10T18:20:27.840Z,98774.94
2022-08-10T18:23:00.005Z,98775.34
2022-08-10T18:25:35.485Z,98771.56
2022-08-10T18:28:07.893Z,98772.97
2022-08-10T18:30:48.003Z,98789.13
2022-08-10T18:33:24.855Z,98779.03
2022-08-10T18:35:56.478Z,98785.94
2022-08-10T18:38:35.300Z,98779.13
2022-08-10T18:41:09.953Z,98786.00
2022-08-10T18:44:06.374Z,98785.75
2022-08-10T18:46:45.141Z,98788.94
2022-08-10T18:49:29.953Z,98791.88
2022-08-10T18:52:04.617Z,98793.25
2022-08-10T18:54:45.227Z,98799.69
2022-08-10T18:57:33.266Z,98802.31
2022-08-10T19:00:10.691Z,98803.91
2022-08-10T19:03:05.311Z,98804.66
2022-08-10T19:05:57.948Z,98812.47
2022-08-10T19:09:08.593Z,98816.09
2022-08-10T19:12:29.927Z,98819.75
2022-08-10T19:15:17.288Z,98826.34
2022-08-10T19:18:07.268Z,98825.91
2022-08-10T19:20:49.484Z,98820.91
2022-08-10T19:23:43.164Z,98831.38
2022-08-10T19:26:42.072Z,98826.34
2022-08-10T19:30:11.326Z,98823.69
2022-08-10T19:32:32.871Z,98828.41
2022-08-10T19:35:12.090Z,98826.44
2022-08-10T19:38:01.391Z,98825.78
2022-08-10T19:40:44.258Z,98818.38
2022-08-10T19:43:59.236Z,98824.59
2022-08-10T19:46:28.642Z,98822.44
2022-08-10T19:49:08.445Z,98819.63
2022-08-10T19:51:52.726Z,98827.63
2022-08-10T19:54:34.923Z,98826.47
2022-08-10T19:57:10.472Z,98830.28
2022-08-10T20:00:17.559Z,98833.13
2022-08-10T20:03:03.852Z,98835.94
2022-08-10T20:06:18.200Z,98837.63
2022-08-10T20:08:51.765Z,98842.28
2022-08-10T20:11:44.601Z,98847.34
2022-08-10T20:14:23.462Z,98841.16
2022-08-10T20:16:59.679Z,98846.66
2022-08-10T20:19:53.460Z,98850.03
2022-08-10T20:22:30.172Z,98846.28
2022-08-10T20:25:07.847Z,98853.19
2022-08-10T20:28:00.564Z,98860.09
2022-08-10T20:30:35.607Z,98857.19
2022-08-10T20:33:13.145Z,98856.59
2022-08-10T20:35:53.301Z,98858.91
2022-08-10T20:38:33.640Z,98853.09
2022-08-10T20:41:23.199Z,98845.81
2022-08-10T20:44:13.832Z,98853.25
2022-08-10T20:46:54.381Z,98846.38
2022-08-10T20:49:37.264Z,98851.81
2022-08-10T20:52:08.335Z,98848.06
2022-08-10T20:54:46.086Z,98843.50
2022-08-10T20:58:07.592Z,98846.38
2022-08-10T21:00:51.931Z,98845.94
2022-08-10T21:03:54.027Z,98851.72
2022-08-10T21:06:52.707Z,98854.84
2022-08-10T21:09:39.578Z,98842.97
2022-08-10T21:12:49.940Z,98846.84
2022-08-10T21:15:48.621Z,98847.03
2022-08-10T21:18:44.614Z,98851.97
2022-08-10T21:21:57.061Z,98847.78
2022-08-10T21:24:36.636Z,98846.09
2022-08-10T21:27:36.198Z,98852.47
2022-08-10T21:30:09.872Z,98845.38
2022-08-10T21:32:54.493Z,98847.22
2022-08-10T21:35:37.360Z,98845.31
2022-08-10T21:38:21.333Z,98848.78
2022-08-10T21:45:13.406Z,98851.16
2022-08-10T21:48:20.657Z,98854.81
2022-08-10T21:52:00.737Z,98852.25
2022-08-10T21:54:43.689Z,98854.28
2022-08-10T21:57:43.171Z,98846.34
2022-08-10T22:00:33.711Z,98861.78
2022-08-10T22:03:24.375Z,98859.91
2022-08-10T22:06:15.083Z,98856.94
2022-08-10T22:09:06.733Z,98855.22
2022-08-10T22:12:08.116Z,98850.41
2022-08-10T22:14:57.355Z,98857.22
2022-08-10T22:21:04.848Z,98844.66
2022-08-10T22:24:16.715Z,98837.69
2022-08-10T22:27:46.365Z,98844.88
2022-08-10T22:30:35.833Z,98846.63
2022-08-10T22:31:25.113Z,98850.81
2022-08-10T22:31:25.967Z,98848.03
2022-08-10T22:33:44.706Z,98841.38
2022-08-10T22:37:09.744Z,98840.47
2022-08-10T22:40:20.210Z,98844.91
2022-08-10T22:43:11.990Z,98844.00
2022-08-10T22:46:07.194Z,98846.47
2022-08-10T22:49:02.329Z,98845.69
2022-08-10T22:51:55.539Z,98844.97
2022-08-10T22:54:51.748Z,98847.78
2022-08-10T22:57:39.233Z,98848.16
2022-08-10T23:00:17.138Z,98849.22
2022-08-10T23:02:58.846Z,98844.59
2022-08-10T23:05:34.675Z,98850.88
2022-08-10T23:08:30.565Z,98842.75
2022-08-10T23:11:07.529Z,98843.47
2022-08-10T23:13:42.966Z,98847.56
2022-08-10T23:16:37.525Z,98844.56
2022-08-10T23:19:18.661Z,98849.03
2022-08-10T23:22:04.479Z,98849.56
2022-08-10T23:24:40.617Z,98848.47
2022-08-10T23:27:38.797Z,98851.69
2022-08-10T23:30:10.479Z,98840.81
2022-08-10T23:32:43.695Z,98845.91
2022-08-10T23:36:05.681Z,98839.41
2022-08-10T23:38:09.460Z,98849.19
2022-08-10T23:40:45.245Z,98846.41
2022-08-10T23:43:20.202Z,98842.41
2022-08-10T23:45:55.092Z,98840.25
2022-08-10T23:48:28.305Z,98842.47
2022-08-10T23:51:01.472Z,98842.13
2022-08-10T23:53:36.426Z,98837.47
2022-08-10T23:56:20.983Z,98852.28
2022-08-10T23:58:55.649Z,98841.25
